»·PEaware :: N102DH KSBP-KAJO

N102DH :: KSBP-KAJO

FLIGHT INFORMATION

Flight Status: Arrived
Operator: Privately registered:
United States
More flights under this callsign
Pilot: John M. (9732)
Aircraft: MCDONNELL-DOUGLAS SKYTRAIN C-47
(DC3)
More flights by this aircraft type
Origin: KSBP San Luis Co Regl
United States
Destination: KAJO Corona Mun
United States
More flights between these airports :: More routes between these airports
Route: +RZS V186 PDZ
File this flight plan on PilotEdge
Remarks: flying C-47 / DC-3
Altitude:
(Current/Filed)
7,500ft
Speed:
(Current/Filed)
140kts
Departed: 07-Jan-18 07:14 PM
Arrived: 07-Jan-18 08:37 PM
Distance/Time
Traveled:
170nm/1:22
Distance/Time
To Go:
Arrived

Flight Plot

Page will automatically refresh every two minutes.


Map Options




Map Legend


Flown Route
Filed Route
Departure Airport
Arrival Airport
Navaid (VOR, NDB)
Fix

Horizontal Profiles

Position Reports

Time Latitude Longitude Heading Altitude Ground
Speed
07-Jan-18 18:50 35.238306 -120.638203 281 221ft 0kts
07-Jan-18 18:51 35.238306 -120.638203 281 221ft 0kts
07-Jan-18 18:52 35.238306 -120.638203 281 221ft 0kts
07-Jan-18 18:53 35.238306 -120.638203 281 221ft 0kts
07-Jan-18 18:54 35.238306 -120.638203 281 221ft 0kts
07-Jan-18 18:55 35.238306 -120.638203 281 221ft 0kts
07-Jan-18 18:56 35.238306 -120.638203 281 221ft 0kts
07-Jan-18 18:57 35.238306 -120.638205 281 221ft 0kts
07-Jan-18 18:58 35.238306 -120.638207 281 221ft 0kts
07-Jan-18 18:59 35.238307 -120.638211 281 221ft 0kts
07-Jan-18 19:00 35.238308 -120.638214 281 221ft 0kts
07-Jan-18 19:01 35.238308 -120.638217 281 221ft 0kts
07-Jan-18 19:02 35.238309 -120.638221 281 221ft 0kts
07-Jan-18 19:03 35.238309 -120.638224 281 221ft 0kts
07-Jan-18 19:04 35.238310 -120.638227 281 221ft 0kts
07-Jan-18 19:05 35.238310 -120.638230 281 221ft 0kts
07-Jan-18 19:06 35.238311 -120.638233 281 221ft 0kts
07-Jan-18 19:07 35.238311 -120.638237 281 221ft 0kts
07-Jan-18 19:08 35.238315 -120.638258 281 221ft 1kts
07-Jan-18 19:09 35.237442 -120.638713 191 221ft 4kts
07-Jan-18 19:10 35.236342 -120.637312 121 221ft 6kts
07-Jan-18 19:11 35.235373 -120.635467 123 221ft 6kts
07-Jan-18 19:12 35.234344 -120.633704 123 221ft 6kts
07-Jan-18 19:13 35.233400 -120.632178 208 221ft 1kts
07-Jan-18 19:14 35.233371 -120.632200 217 221ft 0kts
07-Jan-18 19:15 35.233369 -120.632202 217 221ft 0kts
07-Jan-18 19:16 35.233368 -120.632203 217 221ft 0kts
07-Jan-18 19:17 35.233366 -120.632205 217 221ft 0kts
07-Jan-18 19:18 35.232712 -120.633146 268 221ft 4kts
07-Jan-18 19:19 35.234833 -120.636820 309 221ft 7kts
07-Jan-18 19:20 35.242802 -120.650848 300 347ft 95kts
07-Jan-18 19:21 35.250306 -120.674159 248 1054ft 89kts
07-Jan-18 19:22 35.227513 -120.674927 134 1684ft 92kts
07-Jan-18 19:23 35.211425 -120.650772 121 2302ft 92kts
07-Jan-18 19:24 35.196132 -120.624901 111 2895ft 96kts
07-Jan-18 19:25 35.179649 -120.598773 126 4004ft 100kts
07-Jan-18 19:26 35.159243 -120.575803 144 5061ft 103kts
07-Jan-18 19:27 35.134402 -120.550267 149 5653ft 129kts
07-Jan-18 19:28 35.100276 -120.527015 147 6199ft 152kts
07-Jan-18 19:29 35.066469 -120.504077 149 6628ft 128kts
07-Jan-18 19:30 35.036797 -120.483005 140 7039ft 131kts
07-Jan-18 19:31 35.006749 -120.454535 136 7224ft 135kts
07-Jan-18 19:32 34.978837 -120.423515 135 7444ft 140kts
07-Jan-18 19:33 34.951017 -120.389659 131 7501ft 144kts
07-Jan-18 19:34 34.922659 -120.354128 131 7502ft 149kts
07-Jan-18 19:35 34.893799 -120.317789 131 7499ft 146kts
07-Jan-18 19:36 34.865649 -120.283155 136 7503ft 143kts
07-Jan-18 19:37 34.837398 -120.249225 139 7505ft 142kts
07-Jan-18 19:38 34.808111 -120.217884 139 7504ft 142kts
07-Jan-18 19:39 34.778234 -120.186077 139 7503ft 143kts
07-Jan-18 19:40 34.748403 -120.154346 139 7503ft 143kts
07-Jan-18 19:41 34.718440 -120.122510 140 7502ft 143kts
07-Jan-18 19:42 34.688540 -120.090780 140 7502ft 143kts
07-Jan-18 19:43 34.658619 -120.059082 140 7501ft 142kts
07-Jan-18 19:44 34.628514 -120.027528 139 7500ft 142kts
07-Jan-18 19:45 34.606173 -119.989416 113 7501ft 143kts
07-Jan-18 19:46 34.591372 -119.946549 112 7823ft 128kts
07-Jan-18 19:47 34.578692 -119.909841 111 8241ft 107kts
07-Jan-18 19:48 34.568709 -119.880417 114 8410ft 87kts
07-Jan-18 19:49 34.558227 -119.855150 119 8360ft 82kts
07-Jan-18 19:50 34.543585 -119.829495 132 8128ft 112kts
07-Jan-18 19:51 34.520031 -119.794347 123 7726ft 152kts
07-Jan-18 19:52 34.496113 -119.749766 122 7482ft 155kts
07-Jan-18 19:53 34.472861 -119.706285 121 7485ft 154kts
07-Jan-18 19:54 34.449612 -119.659700 120 7466ft 163kts
07-Jan-18 19:55 34.424947 -119.611496 120 7460ft 167kts
07-Jan-18 19:56 34.400661 -119.563939 120 7466ft 163kts
07-Jan-18 19:57 34.378302 -119.520406 121 7485ft 148kts
07-Jan-18 19:58 34.356768 -119.478713 121 7488ft 144kts
07-Jan-18 19:59 34.335870 -119.438330 121 7488ft 143kts
07-Jan-18 20:00 34.334166 -119.391374 82 7505ft 147kts
07-Jan-18 20:01 34.336489 -119.340900 86 7480ft 150kts
07-Jan-18 20:02 34.338897 -119.288035 85 7461ft 161kts
07-Jan-18 20:03 34.341446 -119.234268 86 7468ft 160kts
07-Jan-18 20:04 34.343594 -119.182960 86 7483ft 148kts
07-Jan-18 20:05 34.345952 -119.129048 86 7457ft 164kts
07-Jan-18 20:06 34.348467 -119.074593 86 7465ft 159kts
07-Jan-18 20:07 34.348787 -119.024199 91 7500ft 143kts
07-Jan-18 20:08 34.347274 -118.976758 91 7503ft 139kts
07-Jan-18 20:09 34.351683 -118.930791 83 7507ft 135kts
07-Jan-18 20:10 34.357005 -118.885493 83 7514ft 135kts
07-Jan-18 20:11 34.349845 -118.840094 110 7520ft 144kts
07-Jan-18 20:12 34.335173 -118.790295 111 7491ft 161kts
07-Jan-18 20:13 34.318065 -118.743799 112 7510ft 146kts
07-Jan-18 20:14 34.300632 -118.696636 112 7491ft 158kts
07-Jan-18 20:15 34.282747 -118.648146 113 7494ft 156kts
07-Jan-18 20:16 34.266089 -118.603370 114 7502ft 144kts
07-Jan-18 20:17 34.251380 -118.558788 112 7498ft 141kts
07-Jan-18 20:18 34.236962 -118.514449 112 7496ft 140kts
07-Jan-18 20:19 34.221525 -118.467022 111 7470ft 160kts
07-Jan-18 20:20 34.206135 -118.419761 113 7507ft 144kts
07-Jan-18 20:21 34.191564 -118.371015 109 7475ft 159kts
07-Jan-18 20:22 34.177128 -118.321684 110 7481ft 154kts
07-Jan-18 20:23 34.162779 -118.272739 110 7479ft 154kts
07-Jan-18 20:24 34.147816 -118.221551 109 7124ft 169kts
07-Jan-18 20:25 34.131431 -118.165381 109 6645ft 177kts
07-Jan-18 20:26 34.115777 -118.111424 110 6148ft 166kts
07-Jan-18 20:27 34.106811 -118.057545 97 5681ft 171kts
07-Jan-18 20:28 34.101176 -118.002580 98 5498ft 155kts
07-Jan-18 20:29 34.095908 -117.950103 97 5492ft 157kts
07-Jan-18 20:30 34.080521 -117.898691 112 5487ft 163kts
07-Jan-18 20:31 34.062750 -117.847270 112 5493ft 163kts
07-Jan-18 20:32 34.045194 -117.796519 112 5505ft 160kts
07-Jan-18 20:33 34.024858 -117.749079 120 5425ft 161kts
07-Jan-18 20:34 33.999485 -117.703717 131 4954ft 165kts
07-Jan-18 20:35 33.969678 -117.661370 116 4482ft 166kts
07-Jan-18 20:36 33.951326 -117.611778 113 3996ft 159kts
07-Jan-18 20:37 33.933543 -117.563471 90 3520ft 158kts
07-Jan-18 20:38 33.937446 -117.510750 82 3115ft 155kts
07-Jan-18 20:39 33.921495 -117.476897 201 3110ft 143kts
07-Jan-18 20:40 33.915613 -117.519003 282 3101ft 127kts
07-Jan-18 20:41 33.907865 -117.556109 218 2321ft 126kts
07-Jan-18 20:42 33.897841 -117.588790 272 795ft 108kts
07-Jan-18 20:43 33.897402 -117.607539 189 542ft 7kts
07-Jan-18 20:44 33.897160 -117.606021 104 542ft 4kts
07-Jan-18 20:45 33.897179 -117.607168 262 542ft 7kts
07-Jan-18 20:46 33.896938 -117.608127 55 542ft 0kts
07-Jan-18 20:47 33.896938 -117.608127 55 542ft 0kts

Navigation Log

Ident Type
1. KSBP Airport
2. RZS Navaid
3. ZIQOR Fix
4. DEANO Fix
5. HENER Fix
6. FIM Navaid
7. SESPE Fix
8. VNY Navaid
9. DARTS Fix
10. PURMS Fix
11. ELMOO Fix
12. ITSME Fix
13. PIRRO Fix
14. ADAMM Fix
15. BAYJY Fix
16. TIFNI Fix
17. PDZ Navaid
18. KAJO Airport